createdAt,value
2022-08-25T00:00:19.112Z,99.90
2022-08-25T00:02:56.248Z,99.90
2022-08-25T00:05:29.132Z,99.90
2022-08-25T00:07:57.499Z,99.90
2022-08-25T00:10:25.475Z,99.90
2022-08-25T00:12:55.214Z,99.90
2022-08-25T00:15:23.598Z,99.90
2022-08-25T00:17:51.637Z,99.90
2022-08-25T00:20:20.075Z,99.90
2022-08-25T00:22:48.976Z,99.90
2022-08-25T00:25:17.565Z,99.90
2022-08-25T00:27:45.893Z,99.90
2022-08-25T00:30:16.852Z,99.90
2022-08-25T00:32:51.508Z,99.90
2022-08-25T00:35:25.436Z,99.90
2022-08-25T00:37:53.212Z,99.90
2022-08-25T00:40:21.268Z,99.90
2022-08-25T00:42:49.107Z,99.90
2022-08-25T00:45:18.835Z,99.90
2022-08-25T00:47:46.704Z,99.90
2022-08-25T00:50:14.562Z,99.90
2022-08-25T00:52:46.725Z,99.90
2022-08-25T00:55:19.152Z,99.90
2022-08-25T00:57:50.719Z,99.90
2022-08-25T01:00:23.221Z,99.90
2022-08-25T01:02:51.034Z,99.90
2022-08-25T01:05:20.751Z,99.90
2022-08-25T01:07:50.328Z,99.90
2022-08-25T01:10:19.974Z,99.90
2022-08-25T01:12:49.101Z,99.90
2022-08-25T01:15:17.988Z,99.90
2022-08-25T01:17:52.873Z,99.90
2022-08-25T01:20:23.351Z,99.90
2022-08-25T01:22:59.481Z,99.90
2022-08-25T01:25:36.574Z,99.90
2022-08-25T01:28:05.627Z,99.90
2022-08-25T01:30:33.731Z,99.90
2022-08-25T01:33:04.971Z,99.90
2022-08-25T01:35:32.884Z,99.90
2022-08-25T01:38:02.640Z,99.90
2022-08-25T01:40:31.274Z,99.90
2022-08-25T01:43:07.464Z,99.90
2022-08-25T01:45:35.445Z,99.90
2022-08-25T01:48:03.699Z,99.90
2022-08-25T01:50:32.404Z,99.90
2022-08-25T01:53:04.787Z,99.90
2022-08-25T01:55:51.446Z,99.90
2022-08-25T01:58:19.874Z,99.90
2022-08-25T02:00:48.988Z,99.90
2022-08-25T02:03:18.895Z,99.90
2022-08-25T02:05:48.254Z,99.90
2022-08-25T02:08:18.162Z,99.90
2022-08-25T02:10:46.431Z,99.90
2022-08-25T02:13:14.798Z,99.90
2022-08-25T02:15:44.414Z,99.90
2022-08-25T02:18:12.739Z,99.90
2022-08-25T02:20:41.681Z,99.90
2022-08-25T02:23:10.190Z,99.90
2022-08-25T02:25:40.912Z,99.90
2022-08-25T02:28:09.393Z,99.90
2022-08-25T02:30:38.618Z,99.90
2022-08-25T02:33:06.592Z,99.90
2022-08-25T02:35:34.329Z,99.90
2022-08-25T02:38:02.211Z,99.90
2022-08-25T02:40:30.087Z,99.90
2022-08-25T02:42:59.228Z,99.90
2022-08-25T02:45:27.059Z,99.90
2022-08-25T02:47:54.870Z,99.90
2022-08-25T02:50:22.642Z,99.90
2022-08-25T02:52:51.969Z,99.90
2022-08-25T02:55:21.917Z,99.90
2022-08-25T02:57:49.641Z,99.90
2022-08-25T03:00:19.275Z,99.90
2022-08-25T03:02:47.622Z,99.90
2022-08-25T03:05:16.236Z,99.90
2022-08-25T03:07:44.138Z,99.90
2022-08-25T03:10:15.970Z,99.90
2022-08-25T03:12:43.959Z,99.90
2022-08-25T03:15:16.793Z,99.90
2022-08-25T03:17:49.301Z,99.90
2022-08-25T03:20:18.637Z,99.90
2022-08-25T03:22:46.365Z,99.90
2022-08-25T03:25:31.989Z,99.90
2022-08-25T03:27:59.972Z,99.90
2022-08-25T03:30:28.557Z,99.90
2022-08-25T03:32:57.619Z,99.90
2022-08-25T03:35:25.357Z,99.90
2022-08-25T03:37:56.817Z,99.90
2022-08-25T03:40:25.129Z,99.90
2022-08-25T03:42:52.978Z,99.90
2022-08-25T03:45:20.904Z,99.90
2022-08-25T03:47:50.341Z,99.90
2022-08-25T03:50:21.057Z,99.90
2022-08-25T03:52:53.756Z,99.90
2022-08-25T03:55:23.853Z,99.90
2022-08-25T03:57:51.734Z,99.90
2022-08-25T04:00:20.682Z,99.90
2022-08-25T04:02:48.771Z,99.90
2022-08-25T04:05:16.672Z,99.90
2022-08-25T04:07:46.017Z,99.90
2022-08-25T04:10:14.001Z,99.90
2022-08-25T04:12:42.762Z,99.90
2022-08-25T04:15:11.513Z,99.90
2022-08-25T04:17:40.724Z,99.90
2022-08-25T04:20:10.043Z,99.90
2022-08-25T04:22:44.895Z,99.90
2022-08-25T04:25:14.340Z,99.90
2022-08-25T04:27:42.239Z,99.90
2022-08-25T04:30:11.269Z,99.90
2022-08-25T04:32:39.043Z,99.90
2022-08-25T04:35:07.718Z,99.90
2022-08-25T04:37:35.778Z,99.90
2022-08-25T04:40:04.748Z,99.90
2022-08-25T04:42:34.486Z,99.90
2022-08-25T04:45:04.085Z,99.90
2022-08-25T04:47:32.046Z,99.90
2022-08-25T04:49:59.838Z,99.90
2022-08-25T04:52:27.550Z,99.90
2022-08-25T04:54:55.406Z,99.90
2022-08-25T04:57:23.167Z,99.90
2022-08-25T04:59:52.386Z,99.90
2022-08-25T05:02:20.570Z,99.90
2022-08-25T05:04:48.363Z,99.90
2022-08-25T05:07:16.106Z,99.90
2022-08-25T05:09:44.014Z,99.90
2022-08-25T05:12:11.872Z,99.90
2022-08-25T05:14:40.656Z,99.90
2022-08-25T05:17:10.022Z,99.90
2022-08-25T05:19:37.987Z,99.90
2022-08-25T05:22:06.479Z,99.90
2022-08-25T05:24:34.228Z,99.90
2022-08-25T05:27:03.286Z,99.90
2022-08-25T05:29:31.030Z,99.90
2022-08-25T05:31:58.775Z,99.90
2022-08-25T05:34:27.886Z,99.90
2022-08-25T05:36:57.373Z,99.90
2022-08-25T05:39:26.892Z,99.90
2022-08-25T05:41:55.281Z,99.90
2022-08-25T05:44:23.495Z,99.90
2022-08-25T05:46:51.467Z,99.90
2022-08-25T05:49:19.710Z,99.90
2022-08-25T05:51:48.759Z,99.90
2022-08-25T05:54:16.944Z,99.90
2022-08-25T05:56:45.343Z,99.90
2022-08-25T05:59:13.293Z,99.90
2022-08-25T06:01:58.482Z,99.90
2022-08-25T06:04:26.281Z,99.90
2022-08-25T06:06:55.658Z,99.90
2022-08-25T06:09:24.254Z,99.90
2022-08-25T06:11:54.926Z,99.90
2022-08-25T06:14:23.613Z,99.90
2022-08-25T06:16:52.081Z,99.90
2022-08-25T06:19:21.143Z,99.90
2022-08-25T06:21:49.158Z,99.90
2022-08-25T06:24:18.210Z,99.90
2022-08-25T06:26:45.945Z,99.90
2022-08-25T06:29:14.874Z,99.90
2022-08-25T06:31:43.523Z,99.90
2022-08-25T06:34:12.001Z,99.90
2022-08-25T06:36:39.887Z,99.90
2022-08-25T06:39:07.921Z,99.90
2022-08-25T06:41:39.933Z,99.90
2022-08-25T06:44:08.005Z,99.90
2022-08-25T06:46:37.052Z,99.90
2022-08-25T06:49:05.684Z,99.90
2022-08-25T06:51:34.259Z,99.90
2022-08-25T06:54:02.029Z,99.90
2022-08-25T06:56:29.778Z,99.90
2022-08-25T06:58:59.163Z,99.90
2022-08-25T07:01:28.022Z,99.90
2022-08-25T07:04:01.673Z,99.90
2022-08-25T07:06:32.560Z,99.90
2022-08-25T07:09:00.740Z,99.90
2022-08-25T07:11:29.216Z,99.90
2022-08-25T07:13:58.275Z,99.90
2022-08-25T07:16:29.667Z,99.90
2022-08-25T07:18:59.105Z,99.90
2022-08-25T07:21:33.206Z,99.90
2022-08-25T07:24:03.432Z,99.90
2022-08-25T07:26:37.772Z,99.90
2022-08-25T07:29:11.539Z,99.90
2022-08-25T07:31:39.514Z,99.90
2022-08-25T07:34:25.556Z,99.90
2022-08-25T07:36:54.053Z,99.90
2022-08-25T07:39:22.710Z,99.90
2022-08-25T07:41:52.021Z,99.90
2022-08-25T07:44:23.342Z,99.90
2022-08-25T07:46:52.315Z,99.90
2022-08-25T07:49:23.177Z,99.90
2022-08-25T07:52:05.172Z,99.90
2022-08-25T07:54:35.437Z,99.90
2022-08-25T07:57:06.732Z,99.90
2022-08-25T07:59:39.397Z,99.90
2022-08-25T08:02:18.303Z,99.90
2022-08-25T08:04:49.425Z,99.90
2022-08-25T08:07:19.238Z,99.90
2022-08-25T08:09:53.066Z,99.90
2022-08-25T08:12:24.609Z,99.90
2022-08-25T08:14:54.610Z,99.90
2022-08-25T08:17:23.064Z,99.90
2022-08-25T08:19:50.810Z,99.90
2022-08-25T08:22:18.587Z,99.90
2022-08-25T08:24:54.794Z,99.90
2022-08-25T08:27:25.284Z,99.90
2022-08-25T08:29:55.052Z,99.90
2022-08-25T08:32:35.408Z,99.90
2022-08-25T08:35:11.594Z,99.90
2022-08-25T08:37:42.084Z,99.90
2022-08-25T08:40:11.570Z,99.90
2022-08-25T08:42:49.422Z,99.90
2022-08-25T08:45:40.554Z,99.90
2022-08-25T08:48:33.294Z,99.90
2022-08-25T08:51:15.086Z,99.90
2022-08-25T08:53:47.166Z,99.90
2022-08-25T08:56:20.365Z,99.90
2022-08-25T08:58:51.309Z,99.90
2022-08-25T09:01:26.293Z,99.90
2022-08-25T09:04:00.703Z,99.90
2022-08-25T09:06:34.076Z,99.90
2022-08-25T09:09:06.931Z,99.90
2022-08-25T09:11:52.182Z,99.90
2022-08-25T09:14:32.789Z,99.90
2022-08-25T09:17:06.239Z,99.90
2022-08-25T09:20:03.027Z,99.90
2022-08-25T09:22:47.081Z,99.90
2022-08-25T09:25:39.689Z,99.90
2022-08-25T09:28:16.659Z,99.90
2022-08-25T09:30:50.339Z,99.90
2022-08-25T09:33:23.068Z,99.90
2022-08-25T09:35:53.585Z,99.90
2022-08-25T09:38:22.306Z,99.90
2022-08-25T09:40:51.759Z,99.90
2022-08-25T09:43:23.555Z,99.90
2022-08-25T09:45:59.929Z,99.90
2022-08-25T09:48:39.725Z,99.90
2022-08-25T09:51:18.832Z,93.90
2022-08-25T09:53:52.516Z,91.40
2022-08-25T09:56:21.875Z,89.30
2022-08-25T09:58:50.159Z,83.10
2022-08-25T10:01:22.410Z,79.40
2022-08-25T10:04:01.846Z,81.70
2022-08-25T10:06:36.365Z,78.70
2022-08-25T10:09:06.699Z,75.00
2022-08-25T10:11:42.056Z,71.90
2022-08-25T10:14:20.370Z,66.30
2022-08-25T10:16:49.473Z,67.20
2022-08-25T10:19:28.513Z,71.80
2022-08-25T10:22:07.398Z,75.10
2022-08-25T10:24:35.841Z,80.00
2022-08-25T10:27:11.371Z,82.00
2022-08-25T10:30:09.156Z,78.10
2022-08-25T10:33:14.006Z,74.80
2022-08-25T10:35:56.150Z,73.50
2022-08-25T10:38:38.322Z,77.10
2022-08-25T10:41:18.739Z,85.20
2022-08-25T10:43:54.599Z,84.60
2022-08-25T10:46:34.280Z,82.30
2022-08-25T10:49:05.932Z,78.20
2022-08-25T10:51:52.986Z,79.60
2022-08-25T10:54:32.896Z,83.50
2022-08-25T10:57:09.950Z,90.40
2022-08-25T10:59:52.385Z,91.40
2022-08-25T11:02:47.625Z,94.00
2022-08-25T11:05:24.766Z,99.20
2022-08-25T11:07:59.039Z,99.90
2022-08-25T11:10:39.578Z,99.90
2022-08-25T11:13:13.497Z,99.90
2022-08-25T11:16:13.206Z,99.90
2022-08-25T11:18:43.543Z,99.90
2022-08-25T11:21:15.597Z,99.90
2022-08-25T11:23:51.453Z,99.90
2022-08-25T11:26:31.929Z,99.90
2022-08-25T11:29:05.874Z,99.90
2022-08-25T11:31:43.224Z,99.90
2022-08-25T11:34:14.470Z,99.90
2022-08-25T11:36:49.254Z,99.90
2022-08-25T11:39:32.970Z,99.90
2022-08-25T11:42:15.785Z,99.90
2022-08-25T11:44:51.885Z,99.90
2022-08-25T11:47:35.790Z,99.90
2022-08-25T11:50:06.863Z,99.90
2022-08-25T11:52:49.155Z,99.90
2022-08-25T11:55:23.472Z,99.90
2022-08-25T11:57:54.071Z,99.90
2022-08-25T12:00:41.119Z,99.90
2022-08-25T12:03:46.375Z,99.90
2022-08-25T12:06:24.972Z,99.90
2022-08-25T12:09:16.684Z,99.90
2022-08-25T12:11:55.056Z,99.90
2022-08-25T12:14:53.172Z,99.90
2022-08-25T12:17:26.700Z,99.90
2022-08-25T12:19:58.638Z,99.90
2022-08-25T12:22:55.929Z,99.90
2022-08-25T12:25:48.502Z,99.90
2022-08-25T12:28:40.923Z,99.90
2022-08-25T12:31:19.982Z,99.90
2022-08-25T12:34:05.216Z,99.90
2022-08-25T12:36:35.576Z,99.90
2022-08-25T12:39:24.313Z,99.90
2022-08-25T12:41:56.281Z,99.90
2022-08-25T12:44:44.820Z,99.90
2022-08-25T12:47:29.777Z,99.90
2022-08-25T12:50:29.009Z,99.90
2022-08-25T12:53:01.989Z,99.90
2022-08-25T12:55:30.384Z,99.90
2022-08-25T12:58:00.914Z,99.90
2022-08-25T13:00:36.258Z,99.90
2022-08-25T13:06:38.088Z,99.90
2022-08-25T13:09:50.242Z,99.90
2022-08-25T13:12:22.665Z,99.90
2022-08-25T13:14:55.115Z,99.90
2022-08-25T13:17:29.059Z,99.90
2022-08-25T13:20:12.825Z,99.90
2022-08-25T13:22:41.041Z,99.90
2022-08-25T13:25:17.749Z,99.90
2022-08-25T13:27:51.851Z,99.90
2022-08-25T13:30:26.146Z,99.90
2022-08-25T13:32:56.831Z,99.90
2022-08-25T13:35:32.152Z,99.90
2022-08-25T13:38:13.563Z,99.90
2022-08-25T13:40:43.205Z,99.90
2022-08-25T13:43:13.924Z,99.90
2022-08-25T13:45:45.742Z,99.90
2022-08-25T13:48:32.088Z,99.90
2022-08-25T13:51:09.748Z,99.90
2022-08-25T13:53:39.970Z,99.90
2022-08-25T13:56:08.304Z,99.90
2022-08-25T13:58:44.675Z,99.90
2022-08-25T14:01:31.437Z,99.90
2022-08-25T14:04:33.967Z,99.90
2022-08-25T14:07:13.176Z,99.90
2022-08-25T14:09:46.425Z,99.90
2022-08-25T14:12:33.103Z,99.90
2022-08-25T14:15:05.485Z,99.90
2022-08-25T14:17:39.961Z,99.90
2022-08-25T14:20:23.674Z,99.90
2022-08-25T14:22:58.542Z,99.90
2022-08-25T14:25:27.667Z,99.90
2022-08-25T14:28:16.566Z,99.90
2022-08-25T14:30:49.303Z,99.90
2022-08-25T14:33:22.317Z,99.90
2022-08-25T14:35:54.924Z,99.90
2022-08-25T14:38:25.061Z,99.90
2022-08-25T14:40:53.851Z,99.90
2022-08-25T14:43:24.074Z,99.90
2022-08-25T14:45:59.453Z,99.90
2022-08-25T14:48:30.574Z,99.90
2022-08-25T14:51:01.269Z,99.90
2022-08-25T14:53:29.380Z,99.90
2022-08-25T14:55:59.337Z,99.90
2022-08-25T14:58:27.719Z,99.90
2022-08-25T15:01:02.514Z,99.90
2022-08-25T15:03:32.910Z,99.90
2022-08-25T15:06:02.722Z,99.90
2022-08-25T15:08:50.142Z,99.90
2022-08-25T15:11:18.287Z,99.90
2022-08-25T15:13:49.482Z,99.90
2022-08-25T15:16:25.339Z,99.90
2022-08-25T15:19:03.220Z,99.90
2022-08-25T15:21:36.835Z,99.90
2022-08-25T15:24:05.368Z,99.90
2022-08-25T15:26:35.327Z,99.90
2022-08-25T15:29:04.709Z,99.90
2022-08-25T15:31:32.599Z,99.90
2022-08-25T15:34:01.035Z,99.90
2022-08-25T15:36:29.365Z,99.90
2022-08-25T15:38:58.547Z,99.90
2022-08-25T15:41:27.715Z,99.90
2022-08-25T15:43:56.584Z,99.90
2022-08-25T15:46:25.974Z,99.90
2022-08-25T15:51:27.374Z,99.90
2022-08-25T15:53:55.734Z,99.90
2022-08-25T15:56:26.825Z,99.90
2022-08-25T15:58:55.583Z,99.90
2022-08-25T16:01:25.111Z,99.90
2022-08-25T16:03:53.465Z,99.90
2022-08-25T16:06:21.556Z,99.90
2022-08-25T16:08:50.030Z,99.90
2022-08-25T16:11:20.003Z,99.90
2022-08-25T16:13:51.554Z,99.90
2022-08-25T16:16:20.547Z,99.90
2022-08-25T16:18:48.805Z,99.90
2022-08-25T16:21:20.885Z,99.90
2022-08-25T16:23:49.383Z,99.90
2022-08-25T16:26:17.609Z,99.90
2022-08-25T16:28:45.849Z,99.90
2022-08-25T16:31:16.731Z,99.90
2022-08-25T16:33:45.371Z,99.90
2022-08-25T16:36:16.036Z,99.90
2022-08-25T16:38:49.096Z,99.90
2022-08-25T16:41:20.923Z,99.90
2022-08-25T16:43:48.701Z,99.90
2022-08-25T16:46:19.605Z,99.90
2022-08-25T16:48:48.528Z,99.90
2022-08-25T16:51:19.259Z,99.90
2022-08-25T16:54:08.264Z,99.90
2022-08-25T16:56:37.487Z,99.90
2022-08-25T16:59:07.370Z,99.90
2022-08-25T17:01:37.975Z,99.90
2022-08-25T17:04:06.246Z,99.90
2022-08-25T17:06:36.751Z,99.90
2022-08-25T17:09:05.685Z,99.90
2022-08-25T17:11:36.189Z,99.90
2022-08-25T17:14:08.981Z,99.90
2022-08-25T17:16:40.604Z,99.90
2022-08-25T17:19:11.902Z,99.90
2022-08-25T17:21:45.052Z,99.90
2022-08-25T17:24:13.436Z,99.90
2022-08-25T17:26:43.143Z,99.90
2022-08-25T17:29:12.359Z,99.90
2022-08-25T17:31:44.046Z,99.90
2022-08-25T17:34:16.422Z,99.90
2022-08-25T17:36:45.218Z,99.90
2022-08-25T17:39:14.832Z,99.90
2022-08-25T17:41:44.026Z,99.90
2022-08-25T17:44:12.385Z,99.90
2022-08-25T17:46:47.328Z,99.90
2022-08-25T17:49:15.972Z,99.90
2022-08-25T17:51:44.044Z,99.90
2022-08-25T17:54:13.233Z,99.90
2022-08-25T17:56:41.311Z,99.90
2022-08-25T17:59:09.196Z,99.90
2022-08-25T18:01:40.579Z,99.90
2022-08-25T18:04:17.429Z,99.90
2022-08-25T18:06:46.433Z,99.90
2022-08-25T18:09:14.390Z,99.90
2022-08-25T18:11:42.628Z,99.90
2022-08-25T18:14:11.279Z,99.90
2022-08-25T18:16:40.968Z,99.90
2022-08-25T18:19:12.455Z,99.90
2022-08-25T18:21:43.317Z,99.90
2022-08-25T18:24:11.793Z,99.90
2022-08-25T18:26:41.517Z,99.90
2022-08-25T18:29:12.175Z,99.90
2022-08-25T18:31:41.075Z,99.90
2022-08-25T18:34:11.711Z,99.90
2022-08-25T18:36:41.306Z,99.90
2022-08-25T18:39:28.761Z,99.90
2022-08-25T18:42:01.067Z,99.90
2022-08-25T18:44:29.259Z,99.90
2022-08-25T18:46:57.874Z,99.90
2022-08-25T18:49:28.807Z,99.90
2022-08-25T18:51:56.738Z,99.90
2022-08-25T18:54:24.523Z,99.90
2022-08-25T18:56:53.933Z,99.90
2022-08-25T18:59:23.742Z,99.90
2022-08-25T19:01:53.599Z,99.90
2022-08-25T19:04:28.565Z,99.90
2022-08-25T19:07:01.495Z,99.90
2022-08-25T19:09:29.334Z,99.90
2022-08-25T19:11:58.530Z,99.90
2022-08-25T19:14:26.700Z,99.90
2022-08-25T19:16:54.895Z,99.90
2022-08-25T19:19:23.917Z,99.90
2022-08-25T19:21:51.762Z,99.90
2022-08-25T19:24:21.814Z,99.90
2022-08-25T19:26:53.781Z,99.90
2022-08-25T19:29:23.533Z,99.90
2022-08-25T19:31:51.701Z,99.90
2022-08-25T19:34:25.338Z,99.90
2022-08-25T19:36:56.972Z,99.90
2022-08-25T19:39:27.830Z,99.90
2022-08-25T19:41:56.746Z,99.90
2022-08-25T19:44:26.166Z,99.90
2022-08-25T19:46:56.223Z,99.90
2022-08-25T19:49:31.450Z,99.90
2022-08-25T19:52:00.117Z,99.90
2022-08-25T19:54:31.832Z,99.90
2022-08-25T19:57:00.130Z,99.90
2022-08-25T19:59:42.280Z,99.90
2022-08-25T20:02:15.190Z,99.90
2022-08-25T20:04:43.924Z,99.90
2022-08-25T20:07:18.550Z,99.90
2022-08-25T20:09:48.573Z,99.90
2022-08-25T20:12:17.674Z,99.90
2022-08-25T20:14:46.779Z,99.90
2022-08-25T20:17:24.799Z,99.90
2022-08-25T20:19:56.091Z,99.90
2022-08-25T20:22:26.160Z,99.90
2022-08-25T20:24:58.000Z,99.90
2022-08-25T20:27:32.152Z,99.90
2022-08-25T20:30:02.742Z,99.90
2022-08-25T20:32:32.197Z,99.90
2022-08-25T20:35:00.204Z,99.90
2022-08-25T20:37:27.955Z,99.90
2022-08-25T20:39:57.337Z,99.90
2022-08-25T20:42:25.276Z,99.90
2022-08-25T20:44:54.638Z,99.90
2022-08-25T20:47:22.645Z,99.90
2022-08-25T20:49:50.880Z,99.90
2022-08-25T20:52:20.827Z,99.90
2022-08-25T20:54:51.159Z,99.90
2022-08-25T20:57:25.823Z,99.90
2022-08-25T20:59:54.874Z,99.90
2022-08-25T21:02:23.631Z,99.90
2022-08-25T21:04:51.602Z,99.90
2022-08-25T21:07:19.760Z,99.90
2022-08-25T21:09:48.370Z,99.90
2022-08-25T21:12:16.311Z,99.90
2022-08-25T21:14:45.882Z,99.90
2022-08-25T21:17:15.134Z,99.90
2022-08-25T21:19:43.669Z,99.90
2022-08-25T21:22:11.515Z,99.90
2022-08-25T21:24:39.481Z,99.90
2022-08-25T21:27:07.317Z,99.90
2022-08-25T21:29:35.198Z,99.90
2022-08-25T21:32:04.739Z,99.90
2022-08-25T21:34:32.537Z,99.90
2022-08-25T21:37:00.413Z,99.90
2022-08-25T21:39:31.988Z,99.90
2022-08-25T21:42:00.548Z,99.90
2022-08-25T21:44:29.505Z,99.90
2022-08-25T21:46:57.792Z,99.90
2022-08-25T21:49:27.478Z,99.90
2022-08-25T21:52:00.957Z,99.90
2022-08-25T21:54:30.168Z,99.90
2022-08-25T21:57:00.935Z,99.90
2022-08-25T21:59:31.947Z,99.90
2022-08-25T22:02:04.213Z,99.90
2022-08-25T22:04:34.093Z,99.90
2022-08-25T22:07:02.459Z,99.90
2022-08-25T22:09:31.371Z,99.90
2022-08-25T22:11:59.347Z,99.90
2022-08-25T22:14:27.903Z,99.90
2022-08-25T22:16:56.272Z,99.90
2022-08-25T22:19:24.833Z,99.90
2022-08-25T22:21:54.802Z,99.90
2022-08-25T22:24:23.082Z,99.90
2022-08-25T22:26:56.758Z,99.90
2022-08-25T22:29:25.755Z,99.90
2022-08-25T22:31:53.864Z,99.90
2022-08-25T22:34:30.196Z,99.90
2022-08-25T22:37:01.780Z,99.90
2022-08-25T22:39:34.296Z,99.90
2022-08-25T22:42:02.751Z,99.90
2022-08-25T22:44:30.753Z,99.90
2022-08-25T22:46:58.524Z,99.90
2022-08-25T22:49:28.986Z,99.90
2022-08-25T22:51:56.710Z,99.90
2022-08-25T22:54:26.576Z,99.90
2022-08-25T22:56:54.501Z,99.90
2022-08-25T22:59:22.587Z,99.90
2022-08-25T23:01:52.364Z,99.90
2022-08-25T23:04:20.642Z,99.90
2022-08-25T23:06:48.567Z,99.90
2022-08-25T23:09:16.319Z,99.90
2022-08-25T23:11:45.376Z,99.90
2022-08-25T23:14:13.693Z,99.90
2022-08-25T23:16:43.341Z,99.90
2022-08-25T23:19:13.778Z,99.90
2022-08-25T23:21:59.838Z,99.90
2022-08-25T23:24:29.868Z,99.90
2022-08-25T23:27:01.614Z,99.90
2022-08-25T23:29:30.856Z,99.90
2022-08-25T23:31:59.564Z,99.90
2022-08-25T23:34:28.698Z,99.90
2022-08-25T23:36:58.202Z,99.90
2022-08-25T23:39:26.203Z,99.90
2022-08-25T23:41:54.313Z,99.90
2022-08-25T23:44:24.511Z,99.90
2022-08-25T23:46:53.611Z,99.90
2022-08-25T23:49:23.620Z,99.90
2022-08-25T23:51:53.154Z,99.90
2022-08-25T23:54:22.285Z,99.90
2022-08-25T23:56:59.104Z,99.90
2022-08-25T23:59:28.202Z,99.90
